logo
App data

Crayon Physics Deluxe

Store | Hub | SteamDB | Site
Developer: Kloonigames Publisher:
Genre: Casual, Indie
Languages: English
Tags: Indie (87), Casual (82), Puzzle (80), Physics (62), Family Friendly (37), Touch-Friendly (34), Singleplayer (31), 2D (25), Cute (20)
Category: Single-player
Release date: Jan 7, 2009
Price: $19.99
Old userscore: 85% Metascore: 79%
Owners: 500,000 .. 1,000,000
Followers: 987
Peak concurrent players yesterday: 7
Peak on Twitch yesterday: 8 viewers, 1 channels
YouTube stats: 3 views and 0 comments for videos uploaded last week, 1 new videos uploaded yesterday.
Playtime total: 01:04 (average) 00:33 (median)

Steam Spy is still in beta, so expect major bugs.

Owners data:

Access restricted.

This feature is only available to users with special access rights. Sorry.

If you want to proceed, you need to register or log in first and then back Steam Spy on Patreon. Look for Indie or Pro pledge.

Don't forget to use the same email as on Steam Spy!

Audience in 2 weeks:

Access restricted.

This feature is only available to users with special access rights. Sorry.

If you want to proceed, you need to register or log in first and then back Steam Spy on Patreon. Look for Indie or Pro pledge.

Don't forget to use the same email as on Steam Spy!

Peak daily concurrent players:

CCU data courtesy of SteamDB. Used with permission.

Hourly concurrent players:

Daily Twitch stats:

Hourly Twitch stats:

YouTube:

The views data is based on top 50 videos uploaded last week. Actual number of views might be more than the number shown.

The displayed number of videos uploaded yesterday is limited to 50, so if there were more videos uploaded, the number will still show 50.

If the game has commonly used word as its name (like "FEAR" or "Volume") its number of Youtube views might be wrong.

Games similar to this one:

# Game Release date
Price
Score rank
(Userscore / Metascore)
Owners
Players
Playtime (Median)
1 Night Blights Apr 15, 2016 $4.99N/A (N/A)0 .. 20,0000%00:00 (00:00)
2 Quell May 14, 2015 $3.9998% (98%)0 .. 20,0000%00:00 (00:00)
3 Hidden in Plain Sight Jul 16, 2014 $5.99N/A (N/A)20,000 .. 50,0000%00:00 (00:00)
4 Carrie's Order Up! Sep 12, 2016 $2.99N/A (N/A)0 .. 20,0000%00:00 (00:00)
5 Hustle Cat Mar 16, 2016 $19.9996% (97%)20,000 .. 50,0000%00:00 (00:00)
6 Everyday Genius: SquareLogic Oct 21, 2009 $4.99N/A (N/A)0 .. 20,0000%00:00 (00:00)
7 Luxor Evolved Mar 1, 2012 $9.99N/A (N/A)50,000 .. 100,0000%00:00 (00:00)
8 Moonlight Feb 5, 2016 $2.99N/A (N/A)0 .. 20,0000%00:00 (00:00)
9 Letter Quest: Grimm's Journey Nov 20, 2014 N/AN/A (N/A/73%)100,000 .. 200,0000%00:00 (00:00)
10 HyperRogue Jan 16, 2015 $4.9994% (96%)20,000 .. 50,0000%00:00 (00:00)
11 Chip's Challenge 2 May 28, 2015 $4.99N/A (N/A)20,000 .. 50,0007.69%00:13 (00:04)
12 Unium Mar 27, 2015 $1.99N/A (N/A)20,000 .. 50,0000%00:00 (00:00)
13 The Counting Kingdom Aug 5, 2014 $6.99N/A (N/A)0 .. 20,0000%00:00 (00:00)
14 Space Hole Sep 2, 2016 $0.99N/A (N/A)0 .. 20,0000%00:00 (00:00)
15 Goats on a Bridge Feb 6, 2015 $4.99N/A (N/A)50,000 .. 100,0000%00:00 (00:00)
16 Pictopix Jan 5, 2017 $6.99N/A (N/A)0 .. 20,00033.33%03:42 (03:41)
17 [the Sequence] Mar 30, 2016 $1.99N/A (N/A)0 .. 20,0000%00:00 (00:00)
18 Creeper World: Anniversary Edition Nov 16, 2016 $4.99N/A (N/A)0 .. 20,0000%00:00 (00:00)
19 Strata May 29, 2014 $3.9984% (93%)50,000 .. 100,0000%00:00 (00:00)
20 Girls Like Robots Feb 14, 2014 $6.99N/A (N/A)100,000 .. 200,0001.02%00:20 (00:06)
21 Gateways Sep 13, 2012 $4.99N/A (N/A/72%)50,000 .. 100,0000%00:00 (00:00)
22 Prelogate Dec 10, 2014 $3.99N/A (N/A)0 .. 20,0000%00:00 (00:00)
23 Swapperoo Dec 18, 2015 $4.99N/A (N/A)0 .. 20,0000%00:00 (00:00)
24 Triple Town Dec 6, 2012 $9.99N/A (N/A)50,000 .. 100,0000%00:00 (00:00)
25 Frog Climbers Oct 6, 2016 $6.99N/A (N/A)50,000 .. 100,0000%00:00 (00:00)
26 Cloudberry Kingdom Aug 2, 2013 $9.99N/A (N/A/67%)20,000 .. 50,0000%00:00 (00:00)
27 Modbox Apr 5, 2016 $8.9979% (92%)20,000 .. 50,0000%00:00 (00:00)
28 Grapple Mar 9, 2015 $7.99N/A (N/A)20,000 .. 50,0000%00:00 (00:00)
29 Dream Car Builder Sep 22, 2016 $14.9979% (92%)0 .. 20,0000%00:00 (00:00)
30 Sokobond Jul 21, 2014 $9.99N/A (N/A/82%)50,000 .. 100,0000%00:00 (00:00)
31 Unhack Jan 9, 2015 $3.99N/A (N/A)20,000 .. 50,0000%00:00 (00:00)
32 Titans of Space 2.0 May 23, 2016 $7.99N/A (N/A)0 .. 20,0000%00:00 (00:00)
33 Soundodger+ Oct 11, 2013 $7.99N/A (N/A/78%)50,000 .. 100,0000%00:00 (00:00)
34 Dots eXtreme Sep 13, 2016 $1.99N/A (N/A)20,000 .. 50,0000%00:00 (00:00)
35 Oik 2 Mar 28, 2017 $0.99N/A (N/A)20,000 .. 50,0004.92%07:21 (06:58)
36 Earthtongue Apr 27, 2015 $4.99N/A (N/A)0 .. 20,0000%00:00 (00:00)
37 Koala Kids Jun 22, 2015 $0.99N/A (N/A)20,000 .. 50,0001.89%00:01 (00:00)
38 Windosill Sep 25, 2009 $2.99N/A (N/A)100,000 .. 200,0000%00:00 (00:00)
39 Tribloos 2 Jan 30, 2014 $0.99N/A (N/A)100,000 .. 200,0001.67%03:05 (01:33)
40 Mu Cartographer Aug 24, 2016 $4.9974% (91%)0 .. 20,0000%00:00 (00:00)
41 One Night Stand Nov 7, 2016 $2.99N/A (N/A)20,000 .. 50,0000%00:00 (00:00)
42 CarX Drift Racing Online Nov 17, 2017 $9.9970% (90%)50,000 .. 100,00031.58%01:25 (01:16)
43 LogiGun Jul 22, 2014 $4.99N/A (N/A)0 .. 20,0000%00:00 (00:00)
44 Dec 28, 2016 $9.99N/A (N/A)0 .. 20,0000%00:00 (00:00)
45 Cubot Jan 8, 2015 $1.99N/A (N/A)20,000 .. 50,0000%00:00 (00:00)
46 On Rusty Trails Jun 13, 2016 $12.9970% (90%/77%)50,000 .. 100,0003.13%12:42 (05:24)
47 PANORAMICAL Sep 17, 2015 $9.99N/A (N/A)0 .. 20,0000%00:00 (00:00)
48 Parallax Mar 10, 2015 $9.9967% (89%/68%)0 .. 20,0000%00:00 (00:00)
49 The Reject Demon: Toko Chapter 0 Prelude May 8, 2015 $4.99N/A (N/A)0 .. 20,0008.33%03:02 (01:21)
50 Vampires: Guide Them to Safety! Oct 22, 2014 $4.99N/A (N/A)0 .. 20,0000%00:00 (00:00)
51 Beyond Gravity Sep 23, 2014 $1.99N/A (N/A)20,000 .. 50,0000%00:00 (00:00)
52 This Starry Midnight We Make Jun 1, 2015 $9.99N/A (N/A)0 .. 20,0000%00:00 (00:00)
53 Forgotten, Not Lost - A Kinetic Novel Apr 1, 2016 $1.9967% (89%)100,000 .. 200,0009.18%03:45 (04:29)
54 Bob Was Hungry Aug 19, 2015 $9.99N/A (N/A)20,000 .. 50,0004.84%03:23 (02:39)
55 Glowfish Sep 30, 2011 $9.99N/A (N/A)20,000 .. 50,0000%00:00 (00:00)
56 Thrillville: Off the Rails Jul 8, 2009 $9.9964% (88%/70%)20,000 .. 50,0000%00:00 (00:00)
57 The Shape Of Heart Oct 25, 2016 $2.99N/A (N/A)0 .. 20,0000%00:00 (00:00)
58 Rooms: The Unsolvable Puzzle May 1, 2015 $8.99N/A (N/A/66%)0 .. 20,0000%00:00 (00:00)
59 12 Labours of Hercules V: Kids of Hellas (Platinum Edition) Jun 17, 2016 $2.99N/A (N/A)20,000 .. 50,0001.59%03:39 (01:13)
60 Masochisia Oct 9, 2015 $7.99N/A (N/A/68%)0 .. 20,0000%00:00 (00:00)
61 PixelJunk Eden Feb 2, 2012 $9.9961% (87%/81%)200,000 .. 500,0000.7%01:46 (00:35)
62 Cursed Sight Aug 3, 2015 $5.99N/A (N/A)0 .. 20,0000%00:00 (00:00)
63 CrossCells May 26, 2017 $2.99N/A (N/A)20,000 .. 50,0000%00:00 (00:00)
64 Spy Chameleon - RGB Agent Jun 11, 2014 $4.9958% (86%)50,000 .. 100,0000%00:00 (00:00)
65 Asphyxia Aug 4, 2015 $5.99N/A (N/A)20,000 .. 50,0000%00:00 (00:00)
66 Army of Pixels Oct 29, 2015 $4.99N/A (N/A)0 .. 20,0000%00:00 (00:00)
67 Sophie's Curse Mar 16, 2016 $1.49N/A (N/A)20,000 .. 50,0001.09%01:00 (00:20)
68 Dead Man's Draw Feb 6, 2014 $6.99N/A (N/A)20,000 .. 50,0000%00:00 (00:00)
69 Surfingers Jan 27, 2016 $1.99N/A (N/A)50,000 .. 100,0000%00:00 (00:00)
70 The Treasures of Montezuma 4 May 16, 2014 $6.99N/A (N/A)20,000 .. 50,0002.94%01:17 (00:25)
71 BAD END Nov 25, 2015 $1.99N/A (N/A)0 .. 20,0000%00:00 (00:00)
72 Crash Drive 2 May 28, 2015 $4.9952% (84%)50,000 .. 100,0000%00:00 (00:00)
73 Magma Tsunami Jun 1, 2016 $0.99N/A (N/A)100,000 .. 200,0000%00:00 (00:00)
74 Governor of Poker 2 - Premium Edition Oct 11, 2010 $14.9952% (84%)20,000 .. 50,0000%00:00 (00:00)
75 Sentinel 4: Dark Star Aug 13, 2015 $6.99N/A (N/A)0 .. 20,0000%00:00 (00:00)
76 Dominique Pamplemousse Mar 11, 2014 $0.9952% (84%/62%)20,000 .. 50,0000%00:00 (00:00)
77 RePete Mar 9, 2016 $1.99N/A (N/A)20,000 .. 50,0002.04%04:15 (01:25)
78 Dungeon Painter Studio Feb 26, 2017 $14.99N/A (N/A)20,000 .. 50,0000%00:00 (00:00)
79 Gridworld Dec 24, 2015 $0.99N/A (N/A)0 .. 20,0000%00:00 (00:00)
80 Cyto Jul 10, 2014 $3.99N/A (N/A)20,000 .. 50,0000%00:00 (00:00)
81 Cute Things Dying Violently Sep 2, 2015 $2.99N/A (N/A)0 .. 20,0000%00:00 (00:00)
82 Auditorium Feb 28, 2012 $6.99N/A (N/A)50,000 .. 100,0000%00:00 (00:00)
83 Masky Dec 16, 2016 $0.99N/A (N/A)0 .. 20,0000%00:00 (00:00)
84 Steam and Metal Feb 9, 2015 $4.99N/A (N/A)0 .. 20,0002.94%02:55 (00:58)
85 Satellite Repairman Feb 2, 2017 $3.99N/A (N/A)0 .. 20,0000%00:00 (00:00)
86 Blocks That Matter Aug 19, 2011 $4.9947% (82%/72%)200,000 .. 500,0000%00:00 (00:00)
87 ISLANDS: Non-Places Nov 17, 2016 $4.99N/A (N/A)0 .. 20,0000%00:00 (00:00)
88 Gravity Cat Jul 13, 2016 $2.99N/A (N/A)20,000 .. 50,0000%00:00 (00:00)
89 SnakEscape Feb 12, 2016 $1.59N/A (N/A)0 .. 20,0003.7%04:41 (01:33)
90 The Floor is Jelly May 30, 2014 $9.99N/A (N/A/83%)20,000 .. 50,0000%00:00 (00:00)
91 Job the Leprechaun Jul 31, 2015 $0.99N/A (N/A)20,000 .. 50,0000.91%01:32 (00:30)
92 Stay Alight Mar 2, 2015 $3.99N/A (N/A)20,000 .. 50,0000%00:00 (00:00)
93 Space Drifters 2D Mar 28, 2016 $0.99N/A (N/A)0 .. 20,0000%00:00 (00:00)
94 Collisions Jul 28, 2015 $3.99N/A (N/A)20,000 .. 50,0000%00:00 (00:00)
95 Star Sky - Oct 23, 2015 $3.99N/A (N/A)0 .. 20,0000%00:00 (00:00)
96 Timore 5 Aug 25, 2016 $7.99N/A (N/A)0 .. 20,0000%00:00 (00:00)
97 Fantastic Contraption Apr 5, 2016 $19.99N/A (N/A)100,000 .. 200,0007.69%00:20 (00:06)
98 Cash_Out May 27, 2015 $4.99N/A (N/A)0 .. 20,0000%00:00 (00:00)
99 Feesh Feb 1, 2016 $0.9943% (80%)0 .. 20,0000%00:00 (00:00)
100 Blueprint Tycoon May 13, 2016 $2.9943% (80%)50,000 .. 100,0000%00:00 (00:00)
101 Brick Inventions Mar 23, 2016 $4.99N/A (N/A)0 .. 20,0000%00:00 (00:00)
102 Farm Frenzy 4 Apr 29, 2014 $6.9941% (79%)20,000 .. 50,0000%00:00 (00:00)
103 Farm for your Life Jun 16, 2014 $9.99N/A (N/A)20,000 .. 50,0006.25%00:01 (00:00)
104 Fate Tectonics Sep 9, 2015 $0.99N/A (N/A)0 .. 20,0000%00:00 (00:00)
105 Terraform May 8, 2015 $2.99N/A (N/A)0 .. 20,0000%00:00 (00:00)
106 Automation - The Car Company Tycoon Game Mar 12, 2015 $29.9941% (79%)50,000 .. 100,00033.33%03:23 (02:15)
107 Particulars Nov 19, 2014 $5.99N/A (N/A/74%)20,000 .. 50,0000%00:00 (00:00)
108 Ancients of Ooga May 20, 2011 $9.99N/A (N/A)20,000 .. 50,0000%00:00 (00:00)
109 Sig.NULL Sep 27, 2016 $1.99N/A (N/A)100,000 .. 200,0000.39%02:11 (00:43)
110 Until I Have You Apr 4, 2016 $2.0939% (78%)0 .. 20,0000%00:00 (00:00)
111 Rescue Team 5 Nov 18, 2015 $1.99N/A (N/A)20,000 .. 50,0000%00:00 (00:00)
112 Whirligig VR Media Player Apr 3, 2016 $3.9937% (77%)20,000 .. 50,0000%00:00 (00:00)
113 SinaRun Oct 26, 2015 $2.99N/A (N/A)0 .. 20,0008.33%01:12 (00:24)
114 Crazy Plant Shop Aug 4, 2014 $4.99N/A (N/A)20,000 .. 50,0000%00:00 (00:00)
115 PRINCIPIA: Master of Science Sep 9, 2016 $9.99N/A (N/A)0 .. 20,0000%00:00 (00:00)
116 Pretentious Game May 20, 2014 $1.99N/A (N/A)20,000 .. 50,0000%00:00 (00:00)
117 Pixel Puzzles 2: Birds Feb 20, 2015 $9.99N/A (N/A)100,000 .. 200,0001.43%04:39 (04:39)
118 Puzzler World 2 Oct 24, 2011 $4.99N/A (N/A)20,000 .. 50,0000%00:00 (00:00)
119 The Deletion Jul 30, 2015 $1.99N/A (N/A)20,000 .. 50,0000%00:00 (00:00)
120 Caravanserail Mar 10, 2016 $2.99N/A (N/A)0 .. 20,0001.67%03:00 (01:00)
121 Beeftacular Aug 26, 2016 $2.9933% (75%)0 .. 20,0000%00:00 (00:00)
122 Where are my Internets? Dec 16, 2016 $2.99N/A (N/A)0 .. 20,0000%00:00 (00:00)
123 Access Denied Dec 16, 2016 $2.99N/A (N/A)0 .. 20,0000%00:00 (00:00)
124 Pythagoria Jan 22, 2016 $1.9933% (75%)0 .. 20,0000%00:00 (00:00)
125 Heroic Dungeon Jun 21, 2017 $3.99N/A (N/A)0 .. 20,0002.63%01:35 (00:31)
126 Kombine Oct 14, 2016 $0.99N/A (N/A)20,000 .. 50,0000%00:00 (00:00)
127 Dodge Mar 16, 2015 $1.99N/A (N/A)0 .. 20,0000%00:00 (00:00)
128 Prehistoric Tales May 26, 2016 $1.49N/A (N/A)0 .. 20,0000%00:00 (00:00)
129 Smooth Operators Jun 10, 2014 $2.9930% (73%)20,000 .. 50,0000%00:00 (00:00)
130 Riddles Of The Past Jul 22, 2016 $6.99N/A (N/A)0 .. 20,0000%00:00 (00:00)
131 Totally Unbalanced Jul 29, 2016 $2.99N/A (N/A)0 .. 20,0006.25%01:50 (00:36)
132 Bunny Hop League Apr 27, 2017 $5.99N/A (N/A)20,000 .. 50,0000%00:00 (00:00)
133 ConflictCraft Dec 8, 2016 $1.49N/A (N/A)20,000 .. 50,0001.03%00:05 (00:01)
134 Viking Brothers Apr 23, 2014 $9.99N/A (N/A)0 .. 20,0000%00:00 (00:00)
135 Lift It Jan 20, 2017 $4.99N/A (N/A)20,000 .. 50,0000%00:00 (00:00)
136 Crashed Lander Feb 4, 2015 $0.99N/A (N/A)0 .. 20,0000%00:00 (00:00)
137 Over The Void Nov 11, 2014 $0.99N/A (N/A)20,000 .. 50,0000%00:00 (00:00)
138 MOAI 2: Path to Another World Jul 16, 2015 $7.99N/A (N/A)0 .. 20,0000%00:00 (00:00)
139 JiPS Apr 19, 2016 $2.99N/A (N/A)50,000 .. 100,0002.24%04:09 (04:55)
140 Point Perfect Jul 17, 2014 $4.9928% (72%)20,000 .. 50,0000%00:00 (00:00)
141 Sportsfriends Dec 19, 2014 $14.99N/A (N/A)20,000 .. 50,0000%00:00 (00:00)
142 Zipple World Jan 19, 2016 $4.99N/A (N/A)0 .. 20,0005.56%00:08 (00:02)
143 Luxor: 5th Passage Jan 25, 2011 $9.99N/A (N/A)20,000 .. 50,0000%00:00 (00:00)
144 Laserlife Sep 22, 2015 $14.99N/A (N/A)0 .. 20,0000%00:00 (00:00)
145 Axel & Pixel Oct 6, 2010 $4.99N/A (N/A)0 .. 20,0000%00:00 (00:00)
146 Farm Frenzy: Hurricane Season Jul 3, 2015 $6.99N/A (N/A)0 .. 20,0000%00:00 (00:00)
147 Racecraft Mar 4, 2016 $19.99N/A (N/A)0 .. 20,0000%00:00 (00:00)
148 InFlux Sep 18, 2013 $9.99N/A (N/A)50,000 .. 100,0000%00:00 (00:00)
149 Super Lemonade Factory Jul 9, 2014 $4.99N/A (N/A)0 .. 20,0000%00:00 (00:00)
150 Pester Aug 21, 2015 $0.99N/A (N/A)100,000 .. 200,0000.35%02:06 (00:42)
151 Typefighters (Steam Edition) Apr 18, 2016 $1.99N/A (N/A)0 .. 20,0000%00:00 (00:00)
152 Strategy & Tactics: Dark Ages Aug 4, 2017 $14.99N/A (N/A)20,000 .. 50,0001.56%00:01 (00:00)
153 Lunnye Devitsy Jul 1, 2009 $4.99N/A (N/A)20,000 .. 50,0000%00:00 (00:00)
154 Trino Jan 27, 2011 $4.99N/A (N/A)0 .. 20,0000%00:00 (00:00)
155 Cibele Nov 2, 2015 $8.9924% (69%/71%)50,000 .. 100,0000%00:00 (00:00)
156 Love in the Glen Jun 8, 2016 $5.99N/A (N/A)0 .. 20,0000%00:00 (00:00)
157 Storm Jun 27, 2013 $9.9923% (68%/63%)20,000 .. 50,0000%00:00 (00:00)
158 CrossWorlds: Escape Oct 12, 2016 $14.99N/A (N/A)0 .. 20,0000%00:00 (00:00)
159 Castles Oct 9, 2015 $1.94N/A (N/A)0 .. 20,0006.67%02:03 (00:41)
160 Quantz Sep 3, 2009 $9.99N/A (N/A/67%)20,000 .. 50,0000%00:00 (00:00)
161 1931: Scheherazade at the Library of Pergamum Mar 26, 2015 $24.99N/A (N/A)0 .. 20,0000%00:00 (00:00)
162 Reach for the Sun Nov 7, 2013 $4.99N/A (N/A)20,000 .. 50,0000%00:00 (00:00)
163 Mind Games Mar 4, 2016 $2.99N/A (N/A)0 .. 20,0000%00:00 (00:00)
164 Wildlife Park 2 - Horses Jul 17, 2014 $3.99N/A (N/A)20,000 .. 50,0000%00:00 (00:00)
165 One Last Chance Apr 7, 2016 $3.99N/A (N/A)0 .. 20,0000%00:00 (00:00)
166 Our Love Will Grow Dec 4, 2015 $4.99N/A (N/A)20,000 .. 50,0000%00:00 (00:00)
167 Mines of Mars Dec 18, 2015 $6.99N/A (N/A)0 .. 20,0000%00:00 (00:00)
168 Marble Duel Nov 12, 2015 $4.9921% (66%)100,000 .. 200,0003%00:06 (00:05)
169 Herding Dog Jan 15, 2016 $2.99N/A (N/A)0 .. 20,0000%00:00 (00:00)
170 Restaurant Empire II May 27, 2009 $19.99N/A (N/A/64%)50,000 .. 100,0000%00:00 (00:00)
171 Painters Guild Sep 1, 2015 $9.9920% (65%)50,000 .. 100,0000%00:00 (00:00)
172 Highborn Feb 19, 2013 $1.99N/A (N/A)0 .. 20,0000%00:00 (00:00)
173 Winexy Jan 13, 2017 $0.99N/A (N/A)20,000 .. 50,0000%00:00 (00:00)
174 The Treasures of Montezuma 3 Oct 16, 2014 $3.9918% (63%)0 .. 20,0000%00:00 (00:00)
175 Meadowland Oct 22, 2014 $3.99N/A (N/A)0 .. 20,0000%00:00 (00:00)
176 Annie Amber Jun 17, 2016 $1.19N/A (N/A)0 .. 20,0003.57%03:11 (01:03)
177 Goodnight Butcher Dec 18, 2015 $1.99N/A (N/A)20,000 .. 50,0000%00:00 (00:00)
178 Pixel Survivors May 5, 2016 $0.99N/A (N/A)50,000 .. 100,0000%00:00 (00:00)
179 Metrocide Dec 15, 2014 $12.99N/A (N/A/68%)50,000 .. 100,0000%00:00 (00:00)
180 Power of Love Jul 21, 2015 $4.99N/A (N/A)20,000 .. 50,0000%00:00 (00:00)
181 Poltergeist: A Pixelated Horror Oct 20, 2014 $7.99N/A (N/A/70%)0 .. 20,0000%00:00 (00:00)
182 Dance Magic Feb 15, 2016 $9.99N/A (N/A)0 .. 20,0000%00:00 (00:00)
183 Party Saboteurs Oct 20, 2016 $9.99N/A (N/A)0 .. 20,0000%00:00 (00:00)
184 Boss Monster Apr 28, 2016 $4.9913% (58%)20,000 .. 50,0000%00:00 (00:00)
185 Way of Gold and Steel Aug 17, 2015 $8.99N/A (N/A)20,000 .. 50,0000%00:00 (00:00)
186 Bunny & Piggy Nov 30, 2016 $0.99N/A (N/A)50,000 .. 100,00014.39%04:16 (04:14)
187 Wildlife Park 3 May 12, 2014 $9.9911% (56%)50,000 .. 100,0000%00:00 (00:00)
188 Chunks Apr 11, 2016 $19.99N/A (N/A)20,000 .. 50,0000%00:00 (00:00)
189 Wildlife Park 2 - Dino World Jul 17, 2014 $3.99N/A (N/A)20,000 .. 50,0000%00:00 (00:00)
190 Hired Ops Oct 21, 2016 $9.9910% (55%)20,000 .. 50,00016.67%00:24 (00:12)
191 Backgammon Blitz Nov 12, 2015 $3.99N/A (N/A)0 .. 20,0000%00:00 (00:00)
192 StarFringe: Adversus Apr 4, 2016 N/AN/A (N/A)20,000 .. 50,0000%00:00 (00:00)
193 Drizzlepath Mar 12, 2015 $2.99N/A (N/A)0 .. 20,0000%00:00 (00:00)
194 Reptilian Rebellion Aug 7, 2016 $0.99N/A (N/A)20,000 .. 50,0002.27%02:32 (01:41)
195 Townopolis Apr 27, 2016 $3.99N/A (N/A)20,000 .. 50,0002.47%00:51 (00:33)
196 Luke Sidewalker Dec 5, 2016 $0.99N/A (N/A)50,000 .. 100,0000%00:00 (00:00)
197 The Good Life Nov 21, 2014 $9.99N/A (N/A)0 .. 20,0000%00:00 (00:00)
198 Sky to Fly: Soulless Leviathan Jul 22, 2016 $3.99N/A (N/A)0 .. 20,0000%00:00 (00:00)
199 Gravi Oct 8, 2013 $4.99N/A (N/A)20,000 .. 50,0000%00:00 (00:00)
200 Rolling Shapes Jun 8, 2015 $0.99N/A (N/A)0 .. 20,0000%00:00 (00:00)
201 Color Syndrome Aug 1, 2016 $0.99N/A (N/A)20,000 .. 50,0000%00:00 (00:00)
202 Astro Emporia Feb 2, 2015 $0.99N/A (N/A)0 .. 20,0001.54%00:08 (00:02)
203 Pointless Feb 22, 2016 FreeN/A (N/A)0 .. 20,0000%00:00 (00:00)
204 Pressured Jul 18, 2014 $2.99N/A (N/A)200,000 .. 500,0000.51%01:24 (00:55)
205 Cosmonautica Jul 31, 2015 $9.998% (51%)100,000 .. 200,0000%00:00 (00:00)
206 Rage Runner May 16, 2014 $4.99N/A (N/A)20,000 .. 50,0000%00:00 (00:00)
207 Fiery Disaster Nov 7, 2016 $1.99N/A (N/A)0 .. 20,0000%00:00 (00:00)
208 Quantum Rush Champions Dec 4, 2014 $9.99N/A (N/A)20,000 .. 50,0000%00:00 (00:00)
209 Rigonauts Aug 7, 2012 $9.99N/A (N/A/60%)20,000 .. 50,0000%00:00 (00:00)
210 Melting Hearts: Our Love Will Grow 2 Apr 29, 2016 $4.99N/A (N/A)0 .. 20,0000%00:00 (00:00)
211 Wildlife Park 2 - Fantasy Jul 17, 2014 $0.79N/A (N/A)20,000 .. 50,0000%00:00 (00:00)
212 The Dolls: Reborn May 25, 2016 $4.996% (47%)50,000 .. 100,0001.08%05:50 (01:56)
213 Weapons Genius Jul 8, 2015 $4.99N/A (N/A)100,000 .. 200,0000.95%00:08 (00:05)
214 Farm Life: Natures Adventure Aug 23, 2016 $0.99N/A (N/A)20,000 .. 50,0000%00:00 (00:00)
215 Autumn May 14, 2016 $2.99N/A (N/A)50,000 .. 100,0000%00:00 (00:00)
216 Ninja Stealth 2 Jan 30, 2017 $0.49N/A (N/A)0 .. 20,0001.72%11:50 (03:56)
217 Castle Jan 7, 2015 $4.99N/A (N/A)50,000 .. 100,0000%00:00 (00:00)
218 Red Goblin: Cursed Forest May 15, 2015 $4.99N/A (N/A)20,000 .. 50,0000%00:00 (00:00)
219 Arcadia Dec 2, 2010 $4.99N/A (N/A)0 .. 20,0000%00:00 (00:00)
220 Economic Conquest May 24, 2017 $4.99N/A (N/A)0 .. 20,0000%00:00 (00:00)
221 iREC Jan 16, 2017 FreeN/A (N/A)20,000 .. 50,00011.22%04:12 (04:28)
222 Burst Mar 14, 2016 $1.99N/A (N/A)100,000 .. 200,0000%00:00 (00:00)
223 Evolution Jun 6, 2016 FreeN/A (N/A)0 .. 20,0000%00:00 (00:00)
224 Streets of Chaos Jan 28, 2015 $0.99N/A (N/A)100,000 .. 200,0000.26%04:32 (01:30)
225 Mech Marines: Steel March Jan 9, 2015 $7.99N/A (N/A)0 .. 20,0000%00:00 (00:00)
226 Hippocampal: The White Sofa May 27, 2014 $4.99N/A (N/A)0 .. 20,0000%00:00 (00:00)
227 Hide and Secret Treasure of the Ages Jun 17, 2016 $0.98N/A (N/A)0 .. 20,0000%00:00 (00:00)
228 The Legions of Rome Sep 13, 2016 $2.99N/A (N/A)0 .. 20,0000%00:00 (00:00)
229 Robot vs Birds Zombies Jul 23, 2015 $0.99N/A (N/A)0 .. 20,0000%00:00 (00:00)
230 Labyrinth Simulator Sep 21, 2015 $4.99N/A (N/A)0 .. 20,0004.55%00:02 (00:00)
231 The Housewife Aug 25, 2016 $4.99N/A (N/A)200,000 .. 500,0000.49%08:03 (05:21)
232 Galcon Legends Jan 13, 2014 $4.99N/A (N/A)100,000 .. 200,0000%00:00 (00:00)
233 Age of Castles: Warlords May 15, 2015 $1.99N/A (N/A)0 .. 20,0000%00:00 (00:00)
234 Triangle Jan 30, 2017 $1.99N/A (N/A)50,000 .. 100,0007.59%03:26 (03:48)
235 Wolf Simulator Nov 16, 2016 $3.99N/A (N/A)50,000 .. 100,0000.54%04:17 (01:25)
236 Stickmageddon May 18, 2017 $0.99N/A (N/A)20,000 .. 50,0000%00:00 (00:00)

Geography of active players over time, share:

Access restricted.

This feature is only available to users with special access rights. Sorry.

If you want to proceed, you need to register or log in first and then back Steam Spy on Patreon. Look for Indie or Pro pledge.

Don't forget to use the same email as on Steam Spy!

Owners of this game also own:

Access restricted.

This feature is only available to users with special access rights. Sorry.

If you want to proceed, you need to register or log in first and then back Steam Spy on Patreon. Look for Indie or Pro pledge.

Don't forget to use the same email as on Steam Spy!

Playtime distribution:

Access restricted.

This feature is only available to users with special access rights. Sorry.

If you want to proceed, you need to register or log in first and then back Steam Spy on Patreon. Look for Indie or Pro pledge.

Don't forget to use the same email as on Steam Spy!

Playtime (2 weeks):

Access restricted.

This feature is only available to users with special access rights. Sorry.

If you want to proceed, you need to register or log in first and then back Steam Spy on Patreon. Look for Indie or Pro pledge.

Don't forget to use the same email as on Steam Spy!

User reviews:

Login required.

Please register or log in to see this information.